createdAt,value
2024-02-20T00:00:34.079Z,8.30
2024-02-20T00:03:00.896Z,8.40
2024-02-20T00:05:32.697Z,8.50
2024-02-20T00:08:01.896Z,8.60
2024-02-20T00:10:31.220Z,8.50
2024-02-20T00:13:00.841Z,8.50
2024-02-20T00:15:30.682Z,8.50
2024-02-20T00:17:58.069Z,8.50
2024-02-20T00:20:25.462Z,8.50
2024-02-20T00:22:52.472Z,8.50
2024-02-20T00:25:20.416Z,8.50
2024-02-20T00:27:48.743Z,8.50
2024-02-20T00:30:15.713Z,8.50
2024-02-20T00:32:43.708Z,8.50
2024-02-20T00:35:10.755Z,8.60
2024-02-20T00:37:41.201Z,8.60
2024-02-20T00:40:12.404Z,8.50
2024-02-20T00:42:43.423Z,8.50
2024-02-20T00:45:11.593Z,8.60
2024-02-20T00:47:38.746Z,8.60
2024-02-20T00:50:07.217Z,8.50
2024-02-20T00:52:37.940Z,8.60
2024-02-20T00:55:06.563Z,8.70
2024-02-20T00:57:37.690Z,8.70
2024-02-20T01:00:06.675Z,8.60
2024-02-20T01:02:33.458Z,8.60
2024-02-20T01:05:01.815Z,8.50
2024-02-20T01:07:29.702Z,8.60
2024-02-20T01:09:56.569Z,8.60
2024-02-20T01:12:24.507Z,8.50
2024-02-20T01:14:53.500Z,8.50
2024-02-20T01:17:21.558Z,8.50
2024-02-20T01:19:51.063Z,8.60
2024-02-20T01:22:19.098Z,8.60
2024-02-20T01:24:46.215Z,8.50
2024-02-20T01:27:15.137Z,8.60
2024-02-20T01:29:46.951Z,8.60
2024-02-20T01:32:15.128Z,8.50
2024-02-20T01:34:42.159Z,8.60
2024-02-20T01:37:09.292Z,8.70
2024-02-20T01:39:37.311Z,8.60
2024-02-20T01:42:04.424Z,8.60
2024-02-20T01:44:34.354Z,8.50
2024-02-20T01:47:03.739Z,8.50
2024-02-20T01:49:32.124Z,8.40
2024-02-20T01:52:01.635Z,8.40
2024-02-20T01:54:28.544Z,8.40
2024-02-20T01:56:55.400Z,8.40
2024-02-20T01:59:22.316Z,8.40
2024-02-20T02:01:50.655Z,8.40
2024-02-20T02:04:20.348Z,8.50
2024-02-20T02:06:48.926Z,8.40
2024-02-20T02:09:17.013Z,8.40
2024-02-20T02:11:44.860Z,8.30
2024-02-20T02:14:12.237Z,8.40
2024-02-20T02:16:40.543Z,8.20
2024-02-20T02:19:07.573Z,8.20
2024-02-20T02:21:37.496Z,8.30
2024-02-20T02:24:05.265Z,8.30
2024-02-20T02:26:35.603Z,8.30
2024-02-20T02:29:03.557Z,8.30
2024-02-20T02:31:32.567Z,8.30
2024-02-20T02:34:01.085Z,8.30
2024-02-20T02:36:29.132Z,8.40
2024-02-20T02:38:57.158Z,8.30
2024-02-20T02:41:26.577Z,8.40
2024-02-20T02:43:54.790Z,8.30
2024-02-20T02:46:21.618Z,8.30
2024-02-20T02:48:52.848Z,8.30
2024-02-20T02:51:24.673Z,8.20
2024-02-20T02:53:52.988Z,8.30
2024-02-20T02:56:22.189Z,8.30
2024-02-20T02:58:52.615Z,8.30
2024-02-20T03:01:20.848Z,8.40
2024-02-20T03:03:48.830Z,8.40
2024-02-20T03:06:17.224Z,8.40
2024-02-20T03:08:44.426Z,8.30
2024-02-20T03:11:12.928Z,8.40
2024-02-20T03:13:41.543Z,8.40
2024-02-20T03:16:12.645Z,8.30
2024-02-20T03:18:42.692Z,8.20
2024-02-20T03:21:11.687Z,8.30
2024-02-20T03:23:41.321Z,8.20
2024-02-20T03:26:11.731Z,8.30
2024-02-20T03:28:41.805Z,8.30
2024-02-20T03:31:11.157Z,8.30
2024-02-20T03:33:38.064Z,8.20
2024-02-20T03:36:05.353Z,8.20
2024-02-20T03:38:33.434Z,8.20
2024-02-20T03:41:02.284Z,8.30
2024-02-20T03:43:29.266Z,8.30
2024-02-20T03:45:56.118Z,8.30
2024-02-20T03:48:24.308Z,8.40
2024-02-20T03:50:51.252Z,8.30
2024-02-20T03:53:18.659Z,8.30
2024-02-20T03:55:46.938Z,8.20
2024-02-20T03:58:13.782Z,8.10
2024-02-20T04:00:41.978Z,8.10
2024-02-20T04:03:08.836Z,8.00
2024-02-20T04:05:39.597Z,7.90
2024-02-20T04:08:06.882Z,7.90
2024-02-20T04:10:33.968Z,7.90
2024-02-20T04:13:01.838Z,7.90
2024-02-20T04:15:29.707Z,7.90
2024-02-20T04:17:56.537Z,7.90
2024-02-20T04:20:23.563Z,8.00
2024-02-20T04:22:52.019Z,8.00
2024-02-20T04:25:21.656Z,8.10
2024-02-20T04:27:54.133Z,8.00
2024-02-20T04:30:23.096Z,8.00
2024-02-20T04:32:49.920Z,8.00
2024-02-20T04:35:16.788Z,7.90
2024-02-20T04:37:44.809Z,8.00
2024-02-20T04:40:13.345Z,8.00
2024-02-20T04:42:40.165Z,8.00
2024-02-20T04:45:09.875Z,7.90
2024-02-20T04:47:37.791Z,8.00
2024-02-20T04:50:06.571Z,7.90
2024-02-20T04:52:34.688Z,7.80
2024-02-20T04:55:01.921Z,7.90
2024-02-20T04:57:29.822Z,7.90
2024-02-20T04:59:58.062Z,7.90
2024-02-20T05:02:25.487Z,7.90
2024-02-20T05:04:56.421Z,7.80
2024-02-20T05:07:25.896Z,7.80
2024-02-20T05:09:52.765Z,7.70
2024-02-20T05:12:20.991Z,7.60
2024-02-20T05:14:52.249Z,7.60
2024-02-20T05:17:20.263Z,7.60
2024-02-20T05:19:48.666Z,7.60
2024-02-20T05:22:18.882Z,7.60
2024-02-20T05:24:47.111Z,7.60
2024-02-20T05:27:13.953Z,7.50
2024-02-20T05:29:41.919Z,7.50
2024-02-20T05:32:08.725Z,7.50
2024-02-20T05:34:37.991Z,7.40
2024-02-20T05:37:08.508Z,7.50
2024-02-20T05:39:36.469Z,7.50
2024-02-20T05:42:03.316Z,7.40
2024-02-20T05:44:30.192Z,7.40
2024-02-20T05:46:57.065Z,7.40
2024-02-20T05:49:25.685Z,7.40
2024-02-20T05:51:55.319Z,7.50
2024-02-20T05:54:22.112Z,7.30
2024-02-20T05:56:50.068Z,7.40
2024-02-20T05:59:18.118Z,7.30
2024-02-20T06:01:45.187Z,7.30
2024-02-20T06:04:13.432Z,7.30
2024-02-20T06:06:41.299Z,7.30
2024-02-20T06:09:08.113Z,7.30
2024-02-20T06:11:35.948Z,7.30
2024-02-20T06:14:04.165Z,7.30
2024-02-20T06:16:30.959Z,7.20
2024-02-20T06:18:59.389Z,7.30
2024-02-20T06:21:26.208Z,7.30
2024-02-20T06:23:53.153Z,7.30
2024-02-20T06:26:21.155Z,7.30
2024-02-20T06:28:48.071Z,7.30
2024-02-20T06:31:15.237Z,7.40
2024-02-20T06:33:44.585Z,7.40
2024-02-20T06:36:11.697Z,7.30
2024-02-20T06:38:39.924Z,7.30
2024-02-20T06:41:11.196Z,7.40
2024-02-20T06:43:43.143Z,7.30
2024-02-20T06:46:11.540Z,7.30
2024-02-20T06:48:38.383Z,7.30
2024-02-20T06:51:06.699Z,7.20
2024-02-20T06:53:35.938Z,7.20
2024-02-20T06:56:05.002Z,7.10
2024-02-20T06:58:34.039Z,7.10
2024-02-20T07:01:00.931Z,6.90
2024-02-20T07:03:27.825Z,6.90
2024-02-20T07:05:56.436Z,6.90
2024-02-20T07:08:24.520Z,6.90
2024-02-20T07:10:51.396Z,6.90
2024-02-20T07:13:19.468Z,6.90
2024-02-20T07:15:47.350Z,6.90
2024-02-20T07:18:15.627Z,6.90
2024-02-20T07:20:43.834Z,6.90
2024-02-20T07:23:11.791Z,6.90
2024-02-20T07:25:39.355Z,6.90
2024-02-20T07:28:07.671Z,6.90
2024-02-20T07:30:34.538Z,6.90
2024-02-20T07:33:02.406Z,7.00
2024-02-20T07:35:29.390Z,7.00
2024-02-20T07:37:56.311Z,7.10
2024-02-20T07:40:23.260Z,7.00
2024-02-20T07:42:52.318Z,7.00
2024-02-20T07:45:20.340Z,7.10
2024-02-20T07:47:48.765Z,7.10
2024-02-20T07:50:17.177Z,7.00
2024-02-20T07:52:44.205Z,7.00
2024-02-20T07:55:16.056Z,7.00
2024-02-20T07:57:47.925Z,7.10
2024-02-20T08:00:16.642Z,7.20
2024-02-20T08:02:44.343Z,7.10
2024-02-20T08:05:11.519Z,7.10
2024-02-20T08:07:41.466Z,7.20
2024-02-20T08:10:10.262Z,7.20
2024-02-20T08:12:38.158Z,7.30
2024-02-20T08:15:05.321Z,7.30
2024-02-20T08:17:33.446Z,7.30
2024-02-20T08:20:01.245Z,7.40
2024-02-20T08:22:28.143Z,7.40
2024-02-20T08:24:55.534Z,7.50
2024-02-20T08:27:24.155Z,7.40
2024-02-20T08:29:54.084Z,7.50
2024-02-20T08:32:20.903Z,7.60
2024-02-20T08:34:47.834Z,7.50
2024-02-20T08:37:15.844Z,7.60
2024-02-20T08:39:43.712Z,7.60
2024-02-20T08:42:12.371Z,7.60
2024-02-20T08:44:40.408Z,7.70
2024-02-20T08:47:07.216Z,7.70
2024-02-20T08:49:37.697Z,7.80
2024-02-20T08:52:05.772Z,7.70
2024-02-20T08:54:32.578Z,7.70
2024-02-20T08:57:03.150Z,7.70
2024-02-20T08:59:33.583Z,7.60
2024-02-20T09:02:03.016Z,7.50
2024-02-20T09:04:32.516Z,7.50
2024-02-20T09:06:59.636Z,7.50
2024-02-20T09:09:26.932Z,7.50
2024-02-20T09:11:54.897Z,7.40
2024-02-20T09:14:21.755Z,7.20
2024-02-20T09:16:49.864Z,7.20
2024-02-20T09:19:16.743Z,7.10
2024-02-20T09:21:44.070Z,7.00
2024-02-20T09:24:12.276Z,7.00
2024-02-20T09:26:40.074Z,7.00
2024-02-20T09:29:08.187Z,6.90
2024-02-20T09:31:39.459Z,6.90
2024-02-20T09:34:07.582Z,6.90
2024-02-20T09:36:35.097Z,7.00
2024-02-20T09:39:01.982Z,7.00
2024-02-20T09:41:29.263Z,7.00
2024-02-20T09:43:57.358Z,7.00
2024-02-20T09:46:27.917Z,6.90
2024-02-20T09:48:58.397Z,6.90
2024-02-20T09:51:25.502Z,7.00
2024-02-20T09:53:56.059Z,7.10
2024-02-20T09:56:25.100Z,7.20
2024-02-20T09:58:52.352Z,7.30
2024-02-20T10:01:21.124Z,7.30
2024-02-20T10:03:49.203Z,7.40
2024-02-20T10:06:24.681Z,7.40
2024-02-20T10:08:54.923Z,7.40
2024-02-20T10:11:24.463Z,7.30
2024-02-20T10:13:54.461Z,7.30
2024-02-20T10:16:21.408Z,7.30
2024-02-20T10:19:03.599Z,7.30
2024-02-20T10:21:31.877Z,7.40
2024-02-20T10:24:21.241Z,7.30
2024-02-20T10:26:52.203Z,7.40
2024-02-20T10:29:19.355Z,7.60
2024-02-20T10:31:47.372Z,7.70
2024-02-20T10:34:20.948Z,7.70
2024-02-20T10:36:49.091Z,7.60
2024-02-20T10:39:16.024Z,7.60
2024-02-20T10:41:44.169Z,7.70
2024-02-20T10:44:11.486Z,7.70
2024-02-20T10:46:40.737Z,7.80
2024-02-20T10:49:26.179Z,7.90
2024-02-20T10:51:58.152Z,7.90
2024-02-20T10:54:35.511Z,7.90
2024-02-20T10:57:11.474Z,7.90
2024-02-20T10:59:40.225Z,7.90
2024-02-20T11:02:08.166Z,8.10
2024-02-20T11:04:35.307Z,8.00
2024-02-20T11:07:09.065Z,8.20
2024-02-20T11:09:37.455Z,8.00
2024-02-20T11:12:08.347Z,8.10
2024-02-20T11:14:37.837Z,8.10
2024-02-20T11:17:24.228Z,8.30
2024-02-20T11:20:22.615Z,8.20
2024-02-20T11:22:51.742Z,8.10
2024-02-20T11:25:21.521Z,8.10
2024-02-20T11:27:50.063Z,8.20
2024-02-20T11:30:24.816Z,8.20
2024-02-20T11:32:57.657Z,8.30
2024-02-20T11:35:33.022Z,8.20
2024-02-20T11:38:10.402Z,8.20
2024-02-20T11:40:39.261Z,8.30
2024-02-20T11:43:09.467Z,8.40
2024-02-20T11:45:36.687Z,8.30
2024-02-20T11:48:11.577Z,8.30
2024-02-20T11:50:41.856Z,8.30
2024-02-20T11:53:17.012Z,8.10
2024-02-20T11:55:49.777Z,8.20
2024-02-20T11:58:21.694Z,8.20
2024-02-20T12:00:55.309Z,8.20
2024-02-20T12:03:37.807Z,8.30
2024-02-20T12:06:15.722Z,8.30
2024-02-20T12:08:44.519Z,8.20
2024-02-20T12:11:16.614Z,8.20
2024-02-20T12:13:44.802Z,8.20
2024-02-20T12:16:24.329Z,8.30
2024-02-20T12:18:52.008Z,8.30
2024-02-20T12:21:23.922Z,8.30
2024-02-20T12:23:58.325Z,8.40
2024-02-20T12:26:26.606Z,8.30
2024-02-20T12:28:54.494Z,8.30
2024-02-20T12:31:25.745Z,8.40
2024-02-20T12:33:54.904Z,8.20
2024-02-20T12:36:23.453Z,8.40
2024-02-20T12:38:53.613Z,8.20
2024-02-20T12:41:20.395Z,8.30
2024-02-20T12:43:48.548Z,8.30
2024-02-20T12:46:15.553Z,8.40
2024-02-20T12:48:53.469Z,8.50
2024-02-20T12:51:21.652Z,8.50
2024-02-20T12:53:49.056Z,8.50
2024-02-20T12:56:15.914Z,8.50
2024-02-20T12:58:46.742Z,8.50
2024-02-20T13:01:16.436Z,8.60
2024-02-20T13:03:43.818Z,8.70
2024-02-20T13:06:12.603Z,8.80
2024-02-20T13:08:40.947Z,8.80
2024-02-20T13:11:09.147Z,8.90
2024-02-20T13:13:37.110Z,9.00
2024-02-20T13:16:04.325Z,9.00
2024-02-20T13:18:33.609Z,9.00
2024-02-20T13:21:03.526Z,9.10
2024-02-20T13:23:31.683Z,8.90
2024-02-20T13:25:59.016Z,9.00
2024-02-20T13:28:25.781Z,9.00
2024-02-20T13:30:52.632Z,9.00
2024-02-20T13:33:22.238Z,8.90
2024-02-20T13:35:49.313Z,8.80
2024-02-20T13:38:19.207Z,9.00
2024-02-20T13:40:47.062Z,9.00
2024-02-20T13:43:13.908Z,8.90
2024-02-20T13:45:53.638Z,9.00
2024-02-20T13:48:21.607Z,9.10
2024-02-20T13:50:50.773Z,9.10
2024-02-20T13:53:19.110Z,9.00
2024-02-20T13:55:51.500Z,8.90
2024-02-20T13:58:21.458Z,8.90
2024-02-20T14:00:49.395Z,9.00
2024-02-20T14:03:17.769Z,8.90
2024-02-20T14:05:44.915Z,8.90
2024-02-20T14:08:13.749Z,9.00
2024-02-20T14:10:41.289Z,8.90
2024-02-20T14:13:09.192Z,8.90
2024-02-20T14:15:36.029Z,8.90
2024-02-20T14:18:04.838Z,9.00
2024-02-20T14:20:34.413Z,8.90
2024-02-20T14:23:05.134Z,8.90
2024-02-20T14:25:33.612Z,8.90
2024-02-20T14:28:02.682Z,8.90
2024-02-20T14:30:30.381Z,8.90
2024-02-20T14:32:57.496Z,9.00
2024-02-20T14:35:25.610Z,9.00
2024-02-20T14:37:55.273Z,8.90
2024-02-20T14:40:22.209Z,8.90
2024-02-20T14:42:50.460Z,8.90
2024-02-20T14:45:17.206Z,9.00
2024-02-20T14:47:45.025Z,8.90
2024-02-20T14:50:13.117Z,8.90
2024-02-20T14:52:39.914Z,8.80
2024-02-20T14:55:07.109Z,8.80
2024-02-20T14:57:33.947Z,9.00
2024-02-20T15:00:02.118Z,9.00
2024-02-20T15:02:28.897Z,8.80
2024-02-20T15:04:57.282Z,8.90
2024-02-20T15:07:25.691Z,8.80
2024-02-20T15:09:54.742Z,8.80
2024-02-20T15:12:21.499Z,8.80
2024-02-20T15:14:50.810Z,8.90
2024-02-20T15:17:18.689Z,8.80
2024-02-20T15:19:46.116Z,8.90
2024-02-20T15:22:14.221Z,8.80
2024-02-20T15:24:45.770Z,8.70
2024-02-20T15:27:17.754Z,8.80
2024-02-20T15:29:46.055Z,8.90
2024-02-20T15:32:14.122Z,8.80
2024-02-20T15:34:43.108Z,8.80
2024-02-20T15:37:10.063Z,8.90
2024-02-20T15:39:38.419Z,8.90
2024-02-20T15:42:07.553Z,8.80
2024-02-20T15:44:40.758Z,8.80
2024-02-20T15:47:10.323Z,9.00
2024-02-20T15:49:42.330Z,8.80
2024-02-20T15:52:11.286Z,8.90
2024-02-20T15:54:41.481Z,8.90
2024-02-20T15:57:09.708Z,8.90
2024-02-20T15:59:40.220Z,8.90
2024-02-20T16:02:09.783Z,8.90
2024-02-20T16:04:40.376Z,8.90
2024-02-20T16:07:10.510Z,8.90
2024-02-20T16:09:38.226Z,8.90
2024-02-20T16:12:05.347Z,8.90
2024-02-20T16:14:32.085Z,8.90
2024-02-20T16:16:58.846Z,8.90
2024-02-20T16:19:25.817Z,8.70
2024-02-20T16:21:52.849Z,8.80
2024-02-20T16:24:23.678Z,8.80
2024-02-20T16:26:51.558Z,8.90
2024-02-20T16:29:25.532Z,9.00
2024-02-20T16:31:55.132Z,9.00
2024-02-20T16:34:22.982Z,9.00
2024-02-20T16:36:55.006Z,9.00
2024-02-20T16:39:21.688Z,8.90
2024-02-20T16:41:49.985Z,8.90
2024-02-20T16:44:16.733Z,8.90
2024-02-20T16:46:44.967Z,9.00
2024-02-20T16:49:11.924Z,9.00
2024-02-20T16:51:40.819Z,9.10
2024-02-20T16:54:07.670Z,9.10
2024-02-20T16:56:35.234Z,9.10
2024-02-20T16:59:03.317Z,9.20
2024-02-20T17:01:30.158Z,9.20
2024-02-20T17:03:56.975Z,9.20
2024-02-20T17:06:29.846Z,9.20
2024-02-20T17:08:59.303Z,9.10
2024-02-20T17:11:26.010Z,9.10
2024-02-20T17:13:53.185Z,9.10
2024-02-20T17:16:21.392Z,9.20
2024-02-20T17:18:49.635Z,9.10
2024-02-20T17:21:16.939Z,9.00
2024-02-20T17:23:45.106Z,9.10
2024-02-20T17:26:11.903Z,9.10
2024-02-20T17:28:42.814Z,9.10
2024-02-20T17:31:20.545Z,9.00
2024-02-20T17:33:56.266Z,9.00
2024-02-20T17:36:23.013Z,8.90
2024-02-20T17:38:50.939Z,9.00
2024-02-20T17:41:24.131Z,8.90
2024-02-20T17:43:52.114Z,9.10
2024-02-20T17:46:21.529Z,9.10
2024-02-20T17:48:51.729Z,9.10
2024-02-20T17:51:21.472Z,9.10
2024-02-20T17:53:51.357Z,9.10
2024-02-20T17:56:19.362Z,9.10
2024-02-20T17:58:47.553Z,8.90
2024-02-20T18:01:16.630Z,9.10
2024-02-20T18:03:46.091Z,9.10
2024-02-20T18:06:12.926Z,9.10
2024-02-20T18:08:41.084Z,9.10
2024-02-20T18:11:07.951Z,9.10
2024-02-20T18:13:38.506Z,9.20
2024-02-20T18:16:08.449Z,9.10
2024-02-20T18:18:35.276Z,9.10
2024-02-20T18:21:02.935Z,9.10
2024-02-20T18:23:42.840Z,9.10
2024-02-20T18:26:11.104Z,9.00
2024-02-20T18:28:38.196Z,9.10
2024-02-20T18:31:06.695Z,9.10
2024-02-20T18:33:33.633Z,9.00
2024-02-20T18:36:00.610Z,9.00
2024-02-20T18:38:27.391Z,9.00
2024-02-20T18:40:58.293Z,8.90
2024-02-20T18:43:26.377Z,8.90
2024-02-20T18:45:53.711Z,9.00
2024-02-20T18:48:27.499Z,8.90
2024-02-20T18:50:55.778Z,9.00
2024-02-20T18:53:25.534Z,9.00
2024-02-20T18:55:52.311Z,9.00
2024-02-20T18:58:21.487Z,9.00
2024-02-20T19:00:48.974Z,9.00
2024-02-20T19:03:15.892Z,8.90
2024-02-20T19:05:42.876Z,8.90
2024-02-20T19:08:12.029Z,9.10
2024-02-20T19:10:43.151Z,9.10
2024-02-20T19:13:11.331Z,9.00
2024-02-20T19:15:41.211Z,9.00
2024-02-20T19:18:10.553Z,9.10
2024-02-20T19:20:37.995Z,9.00
2024-02-20T19:23:04.911Z,9.00
2024-02-20T19:25:31.897Z,8.90
2024-02-20T19:27:58.869Z,8.90
2024-02-20T19:30:25.545Z,9.00
2024-02-20T19:32:53.490Z,9.00
2024-02-20T19:35:22.711Z,9.00
2024-02-20T19:37:51.973Z,9.00
2024-02-20T19:40:20.768Z,9.00
2024-02-20T19:42:47.578Z,9.00
2024-02-20T19:45:15.842Z,8.90
2024-02-20T19:47:42.624Z,8.90
2024-02-20T19:50:15.091Z,8.90
2024-02-20T19:52:43.093Z,9.00
2024-02-20T19:55:12.504Z,9.00
2024-02-20T19:57:41.970Z,8.90
2024-02-20T20:00:09.230Z,8.90
2024-02-20T20:02:37.910Z,9.00
2024-02-20T20:05:08.753Z,8.90
2024-02-20T20:07:40.045Z,8.90
2024-02-20T20:10:10.838Z,9.00
2024-02-20T20:12:38.602Z,8.90
2024-02-20T20:15:09.638Z,8.90
2024-02-20T20:17:37.570Z,9.00
2024-02-20T20:20:13.024Z,8.90
2024-02-20T20:22:41.327Z,8.90
2024-02-20T20:25:10.126Z,8.80
2024-02-20T20:27:37.000Z,8.80
2024-02-20T20:30:06.455Z,8.80
2024-02-20T20:32:34.448Z,8.90
2024-02-20T20:35:02.715Z,8.80
2024-02-20T20:37:31.015Z,8.80
2024-02-20T20:39:58.945Z,8.70
2024-02-20T20:42:25.688Z,8.70
2024-02-20T20:44:54.503Z,8.70
2024-02-20T20:47:21.246Z,8.80
2024-02-20T20:49:48.051Z,8.70
2024-02-20T20:52:14.865Z,8.80
2024-02-20T20:54:42.929Z,8.80
2024-02-20T20:57:09.689Z,8.70
2024-02-20T20:59:40.618Z,8.70
2024-02-20T21:02:09.886Z,8.60
2024-02-20T21:04:40.984Z,8.60
2024-02-20T21:07:10.161Z,8.60
2024-02-20T21:09:40.627Z,8.60
2024-02-20T21:12:12.017Z,8.60
2024-02-20T21:14:40.995Z,8.60
2024-02-20T21:17:08.749Z,8.60
2024-02-20T21:19:38.345Z,8.70
2024-02-20T21:22:06.244Z,8.70
2024-02-20T21:24:35.793Z,8.60
2024-02-20T21:27:03.865Z,8.60
2024-02-20T21:29:30.567Z,8.50
2024-02-20T21:32:00.454Z,8.60
2024-02-20T21:34:27.390Z,8.70
2024-02-20T21:36:55.489Z,8.80
2024-02-20T21:39:22.266Z,8.70
2024-02-20T21:41:50.181Z,8.70
2024-02-20T21:44:16.934Z,8.60
2024-02-20T21:46:44.636Z,8.60
2024-02-20T21:49:11.533Z,8.60
2024-02-20T21:51:39.379Z,8.70
2024-02-20T21:54:07.581Z,8.80
2024-02-20T21:56:37.764Z,8.80
2024-02-20T21:59:05.598Z,8.90
2024-02-20T22:01:32.392Z,8.90
2024-02-20T22:04:00.575Z,8.90
2024-02-20T22:06:28.588Z,8.90
2024-02-20T22:08:58.391Z,8.80
2024-02-20T22:11:29.861Z,8.80
2024-02-20T22:13:56.817Z,8.80
2024-02-20T22:16:23.659Z,8.80
2024-02-20T22:18:55.177Z,8.80
2024-02-20T22:21:25.531Z,8.60
2024-02-20T22:23:54.913Z,8.60
2024-02-20T22:26:24.344Z,8.50
2024-02-20T22:28:53.666Z,8.50
2024-02-20T22:31:22.594Z,8.60
2024-02-20T22:33:50.500Z,8.60
2024-02-20T22:36:18.022Z,8.60
2024-02-20T22:38:46.232Z,8.50
2024-02-20T22:41:20.453Z,8.40
2024-02-20T22:43:50.294Z,8.40
2024-02-20T22:46:17.284Z,8.50
2024-02-20T22:48:48.137Z,8.50
2024-02-20T22:51:15.020Z,8.60
2024-02-20T22:53:42.901Z,8.60
2024-02-20T22:56:13.106Z,8.60
2024-02-20T22:58:41.945Z,8.60
2024-02-20T23:01:09.998Z,8.50
2024-02-20T23:03:38.159Z,8.50
2024-02-20T23:06:05.257Z,8.50
2024-02-20T23:08:35.903Z,8.60
2024-02-20T23:11:03.983Z,8.50
2024-02-20T23:13:30.843Z,8.60
2024-02-20T23:15:58.897Z,8.60
2024-02-20T23:18:27.076Z,8.50
2024-02-20T23:20:55.472Z,8.50
2024-02-20T23:23:22.188Z,8.50
2024-02-20T23:25:48.917Z,8.50
2024-02-20T23:28:16.989Z,8.40
2024-02-20T23:30:46.387Z,8.40
2024-02-20T23:33:16.027Z,8.30
2024-02-20T23:35:46.480Z,8.40
2024-02-20T23:38:16.423Z,8.30
2024-02-20T23:40:43.222Z,8.40
2024-02-20T23:43:11.071Z,8.30
2024-02-20T23:45:37.787Z,8.30
2024-02-20T23:48:07.848Z,8.40
2024-02-20T23:50:35.765Z,8.50
2024-02-20T23:53:02.551Z,8.40
2024-02-20T23:55:30.763Z,8.40
2024-02-20T23:57:57.513Z,8.40
